sensor_id;sensor_type;location;lat;lon;timestamp;P1;durP1;ratioP1;P2;durP2;ratioP2
30948;SDS011;17637;51.984;21.208;2023-02-11T00:01:45;75.78;;;36.83;;
30948;SDS011;17637;51.984;21.208;2023-02-11T00:04:17;74.70;;;37.90;;
30948;SDS011;17637;51.984;21.208;2023-02-11T00:06:49;79.43;;;38.95;;
30948;SDS011;17637;51.984;21.208;2023-02-11T00:09:21;72.07;;;40.35;;
30948;SDS011;17637;51.984;21.208;2023-02-11T00:11:53;75.07;;;37.75;;
30948;SDS011;17637;51.984;21.208;2023-02-11T00:14:25;77.95;;;37.28;;
30948;SDS011;17637;51.984;21.208;2023-02-11T00:16:57;72.32;;;36.28;;
30948;SDS011;17637;51.984;21.208;2023-02-11T00:19:29;67.28;;;35.53;;
30948;SDS011;17637;51.984;21.208;2023-02-11T00:22:03;64.22;;;34.65;;
30948;SDS011;17637;51.984;21.208;2023-02-11T00:24:35;72.97;;;36.47;;
30948;SDS011;17637;51.984;21.208;2023-02-11T00:27:07;68.63;;;34.40;;
30948;SDS011;17637;51.984;21.208;2023-02-11T00:29:39;62.70;;;33.97;;
30948;SDS011;17637;51.984;21.208;2023-02-11T00:32:11;64.38;;;35.05;;
30948;SDS011;17637;51.984;21.208;2023-02-11T00:34:43;67.88;;;35.15;;
30948;SDS011;17637;51.984;21.208;2023-02-11T00:37:15;62.88;;;33.45;;
30948;SDS011;17637;51.984;21.208;2023-02-11T00:39:47;63.67;;;33.45;;
30948;SDS011;17637;51.984;21.208;2023-02-11T00:42:20;68.18;;;34.83;;
30948;SDS011;17637;51.984;21.208;2023-02-11T00:44:52;61.03;;;31.58;;
30948;SDS011;17637;51.984;21.208;2023-02-11T00:47:24;59.20;;;32.30;;
30948;SDS011;17637;51.984;21.208;2023-02-11T00:49:56;55.40;;;30.25;;
30948;SDS011;17637;51.984;21.208;2023-02-11T00:52:28;59.55;;;30.40;;
30948;SDS011;17637;51.984;21.208;2023-02-11T00:55:00;57.97;;;32.05;;
30948;SDS011;17637;51.984;21.208;2023-02-11T00:57:32;60.45;;;30.00;;
30948;SDS011;17637;51.984;21.208;2023-02-11T01:00:04;59.03;;;30.27;;
30948;SDS011;17637;51.984;21.208;2023-02-11T01:02:37;50.92;;;27.77;;
30948;SDS011;17637;51.984;21.208;2023-02-11T01:05:09;50.10;;;26.70;;
30948;SDS011;17637;51.984;21.208;2023-02-11T01:07:42;55.72;;;28.42;;
30948;SDS011;17637;51.984;21.208;2023-02-11T01:10:14;54.22;;;27.13;;
30948;SDS011;17637;51.984;21.208;2023-02-11T01:12:46;50.47;;;26.98;;
30948;SDS011;17637;51.984;21.208;2023-02-11T01:15:18;53.47;;;27.13;;
30948;SDS011;17637;51.984;21.208;2023-02-11T01:17:51;47.20;;;25.33;;
30948;SDS011;17637;51.984;21.208;2023-02-11T01:20:24;53.85;;;24.98;;
30948;SDS011;17637;51.984;21.208;2023-02-11T01:22:57;51.58;;;25.67;;
30948;SDS011;17637;51.984;21.208;2023-02-11T01:25:29;47.10;;;25.13;;
30948;SDS011;17637;51.984;21.208;2023-02-11T01:28:01;49.80;;;25.23;;
30948;SDS011;17637;51.984;21.208;2023-02-11T01:30:33;47.17;;;25.80;;
30948;SDS011;17637;51.984;21.208;2023-02-11T01:33:05;46.03;;;24.70;;
30948;SDS011;17637;51.984;21.208;2023-02-11T01:35:38;43.47;;;25.33;;
30948;SDS011;17637;51.984;21.208;2023-02-11T01:38:17;48.15;;;25.10;;
30948;SDS011;17637;51.984;21.208;2023-02-11T01:43:41;43.92;;;23.33;;
30948;SDS011;17637;51.984;21.208;2023-02-11T01:46:30;41.97;;;23.02;;
30948;SDS011;17637;51.984;21.208;2023-02-11T01:51:56;41.35;;;21.85;;
30948;SDS011;17637;51.984;21.208;2023-02-11T01:54:35;42.30;;;21.85;;
30948;SDS011;17637;51.984;21.208;2023-02-11T01:57:31;41.47;;;22.20;;
30948;SDS011;17637;51.984;21.208;2023-02-11T02:06:00;41.28;;;23.35;;
30948;SDS011;17637;51.984;21.208;2023-02-11T02:11:23;37.97;;;20.13;;
30948;SDS011;17637;51.984;21.208;2023-02-11T02:13:55;36.05;;;20.85;;
30948;SDS011;17637;51.984;21.208;2023-02-11T02:16:34;40.08;;;20.73;;
30948;SDS011;17637;51.984;21.208;2023-02-11T02:27:52;37.33;;;19.38;;
30948;SDS011;17637;51.984;21.208;2023-02-11T02:33:59;37.67;;;20.30;;
30948;SDS011;17637;51.984;21.208;2023-02-11T02:39:35;34.63;;;19.35;;
30948;SDS011;17637;51.984;21.208;2023-02-11T02:42:08;37.25;;;17.85;;
30948;SDS011;17637;51.984;21.208;2023-02-11T02:44:46;35.60;;;19.05;;
30948;SDS011;17637;51.984;21.208;2023-02-11T02:47:20;35.85;;;20.77;;
30948;SDS011;17637;51.984;21.208;2023-02-11T02:49:52;35.55;;;18.58;;
30948;SDS011;17637;51.984;21.208;2023-02-11T02:52:34;37.28;;;19.80;;
30948;SDS011;17637;51.984;21.208;2023-02-11T03:01:07;36.28;;;17.33;;
30948;SDS011;17637;51.984;21.208;2023-02-11T03:07:15;32.55;;;17.30;;
30948;SDS011;17637;51.984;21.208;2023-02-11T03:12:39;30.17;;;15.20;;
30948;SDS011;17637;51.984;21.208;2023-02-11T03:15:14;29.20;;;16.23;;
30948;SDS011;17637;51.984;21.208;2023-02-11T03:17:48;26.77;;;15.38;;
30948;SDS011;17637;51.984;21.208;2023-02-11T03:20:23;28.20;;;14.98;;
30948;SDS011;17637;51.984;21.208;2023-02-11T03:23:03;32.80;;;15.07;;
30948;SDS011;17637;51.984;21.208;2023-02-11T03:25:47;27.98;;;15.48;;
30948;SDS011;17637;51.984;21.208;2023-02-11T03:36:44;24.35;;;13.90;;
30948;SDS011;17637;51.984;21.208;2023-02-11T03:39:23;27.98;;;13.90;;
30948;SDS011;17637;51.984;21.208;2023-02-11T03:42:01;26.42;;;13.40;;
30948;SDS011;17637;51.984;21.208;2023-02-11T03:44:39;29.13;;;14.57;;
30948;SDS011;17637;51.984;21.208;2023-02-11T03:47:16;26.38;;;13.68;;
30948;SDS011;17637;51.984;21.208;2023-02-11T03:49:52;27.45;;;14.45;;
30948;SDS011;17637;51.984;21.208;2023-02-11T03:52:27;26.95;;;13.23;;
30948;SDS011;17637;51.984;21.208;2023-02-11T03:55:00;24.20;;;12.80;;
30948;SDS011;17637;51.984;21.208;2023-02-11T03:57:36;26.75;;;14.07;;
30948;SDS011;17637;51.984;21.208;2023-02-11T04:00:09;25.95;;;14.02;;
30948;SDS011;17637;51.984;21.208;2023-02-11T04:02:42;26.98;;;13.75;;
30948;SDS011;17637;51.984;21.208;2023-02-11T04:05:14;26.65;;;14.38;;
30948;SDS011;17637;51.984;21.208;2023-02-11T04:07:46;26.10;;;14.05;;
30948;SDS011;17637;51.984;21.208;2023-02-11T04:10:18;31.50;;;14.90;;
30948;SDS011;17637;51.984;21.208;2023-02-11T04:12:50;25.63;;;14.23;;
30948;SDS011;17637;51.984;21.208;2023-02-11T04:15:23;31.15;;;14.68;;
30948;SDS011;17637;51.984;21.208;2023-02-11T04:17:55;27.92;;;15.30;;
30948;SDS011;17637;51.984;21.208;2023-02-11T04:20:28;27.50;;;14.57;;
30948;SDS011;17637;51.984;21.208;2023-02-11T04:23:00;33.35;;;16.65;;
30948;SDS011;17637;51.984;21.208;2023-02-11T04:25:32;31.25;;;15.68;;
30948;SDS011;17637;51.984;21.208;2023-02-11T04:28:04;29.75;;;16.85;;
30948;SDS011;17637;51.984;21.208;2023-02-11T04:30:36;29.10;;;16.45;;
30948;SDS011;17637;51.984;21.208;2023-02-11T04:33:08;28.77;;;16.58;;
30948;SDS011;17637;51.984;21.208;2023-02-11T04:35:40;33.65;;;16.88;;
30948;SDS011;17637;51.984;21.208;2023-02-11T04:38:12;27.40;;;16.02;;
30948;SDS011;17637;51.984;21.208;2023-02-11T04:40:44;32.47;;;17.58;;
30948;SDS011;17637;51.984;21.208;2023-02-11T04:43:16;28.25;;;16.98;;
30948;SDS011;17637;51.984;21.208;2023-02-11T04:45:48;34.67;;;18.90;;
30948;SDS011;17637;51.984;21.208;2023-02-11T04:48:21;33.08;;;17.75;;
30948;SDS011;17637;51.984;21.208;2023-02-11T04:50:52;29.30;;;17.52;;
30948;SDS011;17637;51.984;21.208;2023-02-11T04:53:24;31.35;;;17.95;;
30948;SDS011;17637;51.984;21.208;2023-02-11T04:55:56;35.55;;;18.13;;
30948;SDS011;17637;51.984;21.208;2023-02-11T04:58:28;33.22;;;18.05;;
30948;SDS011;17637;51.984;21.208;2023-02-11T05:01:05;34.13;;;18.70;;
30948;SDS011;17637;51.984;21.208;2023-02-11T05:03:38;32.40;;;17.73;;
30948;SDS011;17637;51.984;21.208;2023-02-11T05:06:10;34.03;;;19.30;;
30948;SDS011;17637;51.984;21.208;2023-02-11T05:08:42;33.03;;;18.55;;
30948;SDS011;17637;51.984;21.208;2023-02-11T05:11:16;35.28;;;19.30;;
30948;SDS011;17637;51.984;21.208;2023-02-11T05:13:49;36.83;;;19.30;;
30948;SDS011;17637;51.984;21.208;2023-02-11T05:16:21;35.03;;;18.58;;
30948;SDS011;17637;51.984;21.208;2023-02-11T05:18:54;32.30;;;19.23;;
30948;SDS011;17637;51.984;21.208;2023-02-11T05:21:26;34.35;;;19.58;;
30948;SDS011;17637;51.984;21.208;2023-02-11T05:23:58;32.50;;;18.58;;
30948;SDS011;17637;51.984;21.208;2023-02-11T05:26:31;32.92;;;18.90;;
30948;SDS011;17637;51.984;21.208;2023-02-11T05:29:03;32.72;;;18.73;;
30948;SDS011;17637;51.984;21.208;2023-02-11T05:31:35;34.50;;;18.65;;
30948;SDS011;17637;51.984;21.208;2023-02-11T05:34:07;33.58;;;18.70;;
30948;SDS011;17637;51.984;21.208;2023-02-11T05:36:39;38.50;;;19.30;;
30948;SDS011;17637;51.984;21.208;2023-02-11T05:39:11;27.15;;;17.55;;
30948;SDS011;17637;51.984;21.208;2023-02-11T05:41:44;32.95;;;18.95;;
30948;SDS011;17637;51.984;21.208;2023-02-11T05:44:16;32.28;;;18.67;;
30948;SDS011;17637;51.984;21.208;2023-02-11T05:46:48;33.60;;;19.05;;
30948;SDS011;17637;51.984;21.208;2023-02-11T05:49:20;33.78;;;18.15;;
30948;SDS011;17637;51.984;21.208;2023-02-11T05:51:52;31.35;;;18.25;;
30948;SDS011;17637;51.984;21.208;2023-02-11T05:54:24;32.80;;;18.55;;
30948;SDS011;17637;51.984;21.208;2023-02-11T05:56:56;35.25;;;20.58;;
30948;SDS011;17637;51.984;21.208;2023-02-11T05:59:28;31.52;;;19.05;;
30948;SDS011;17637;51.984;21.208;2023-02-11T06:02:00;28.70;;;17.10;;
30948;SDS011;17637;51.984;21.208;2023-02-11T06:04:33;34.60;;;19.63;;
30948;SDS011;17637;51.984;21.208;2023-02-11T06:07:05;37.67;;;21.33;;
30948;SDS011;17637;51.984;21.208;2023-02-11T06:09:37;33.38;;;20.25;;
30948;SDS011;17637;51.984;21.208;2023-02-11T06:12:09;37.67;;;22.00;;
30948;SDS011;17637;51.984;21.208;2023-02-11T06:14:41;41.47;;;24.50;;
30948;SDS011;17637;51.984;21.208;2023-02-11T06:17:13;41.65;;;21.85;;
30948;SDS011;17637;51.984;21.208;2023-02-11T06:19:46;34.58;;;20.27;;
30948;SDS011;17637;51.984;21.208;2023-02-11T06:22:17;36.92;;;21.38;;
30948;SDS011;17637;51.984;21.208;2023-02-11T06:24:49;34.97;;;21.10;;
30948;SDS011;17637;51.984;21.208;2023-02-11T06:27:32;38.33;;;22.65;;
30948;SDS011;17637;51.984;21.208;2023-02-11T06:30:04;33.17;;;21.25;;
30948;SDS011;17637;51.984;21.208;2023-02-11T06:32:37;46.22;;;25.58;;
30948;SDS011;17637;51.984;21.208;2023-02-11T06:35:15;38.65;;;22.52;;
30948;SDS011;17637;51.984;21.208;2023-02-11T06:37:47;42.78;;;25.60;;
30948;SDS011;17637;51.984;21.208;2023-02-11T06:40:20;44.10;;;27.02;;
30948;SDS011;17637;51.984;21.208;2023-02-11T06:42:52;45.33;;;27.90;;
30948;SDS011;17637;51.984;21.208;2023-02-11T06:45:24;42.45;;;25.38;;
30948;SDS011;17637;51.984;21.208;2023-02-11T06:47:56;52.15;;;29.40;;
30948;SDS011;17637;51.984;21.208;2023-02-11T06:50:28;47.92;;;26.23;;
30948;SDS011;17637;51.984;21.208;2023-02-11T06:53:00;41.33;;;23.95;;
30948;SDS011;17637;51.984;21.208;2023-02-11T06:55:33;41.70;;;24.35;;
30948;SDS011;17637;51.984;21.208;2023-02-11T06:58:05;39.20;;;23.88;;
30948;SDS011;17637;51.984;21.208;2023-02-11T07:00:38;45.45;;;25.83;;
30948;SDS011;17637;51.984;21.208;2023-02-11T07:03:10;51.53;;;28.67;;
30948;SDS011;17637;51.984;21.208;2023-02-11T07:05:42;44.42;;;26.35;;
30948;SDS011;17637;51.984;21.208;2023-02-11T07:08:14;41.83;;;27.00;;
30948;SDS011;17637;51.984;21.208;2023-02-11T07:10:46;42.03;;;24.98;;
30948;SDS011;17637;51.984;21.208;2023-02-11T07:13:19;43.55;;;26.30;;
30948;SDS011;17637;51.984;21.208;2023-02-11T07:15:51;47.85;;;26.00;;
30948;SDS011;17637;51.984;21.208;2023-02-11T07:18:23;40.60;;;25.35;;
30948;SDS011;17637;51.984;21.208;2023-02-11T07:20:55;43.33;;;25.80;;
30948;SDS011;17637;51.984;21.208;2023-02-11T07:23:27;46.83;;;26.85;;
30948;SDS011;17637;51.984;21.208;2023-02-11T07:26:03;41.40;;;26.02;;
30948;SDS011;17637;51.984;21.208;2023-02-11T07:28:37;44.40;;;26.27;;
30948;SDS011;17637;51.984;21.208;2023-02-11T07:33:44;42.85;;;26.98;;
30948;SDS011;17637;51.984;21.208;2023-02-11T07:36:16;48.78;;;26.77;;
30948;SDS011;17637;51.984;21.208;2023-02-11T07:38:49;43.83;;;26.92;;
30948;SDS011;17637;51.984;21.208;2023-02-11T07:41:22;47.78;;;28.25;;
30948;SDS011;17637;51.984;21.208;2023-02-11T07:43:55;46.00;;;27.10;;
30948;SDS011;17637;51.984;21.208;2023-02-11T07:46:27;51.03;;;28.50;;
30948;SDS011;17637;51.984;21.208;2023-02-11T07:48:59;62.13;;;36.58;;
30948;SDS011;17637;51.984;21.208;2023-02-11T07:51:32;78.45;;;42.50;;
30948;SDS011;17637;51.984;21.208;2023-02-11T07:54:04;84.47;;;44.67;;
30948;SDS011;17637;51.984;21.208;2023-02-11T07:56:36;56.00;;;33.90;;
30948;SDS011;17637;51.984;21.208;2023-02-11T07:59:08;74.90;;;42.67;;
30948;SDS011;17637;51.984;21.208;2023-02-11T08:01:41;86.95;;;45.38;;
30948;SDS011;17637;51.984;21.208;2023-02-11T08:04:13;70.88;;;38.42;;
30948;SDS011;17637;51.984;21.208;2023-02-11T08:06:45;61.63;;;37.17;;
30948;SDS011;17637;51.984;21.208;2023-02-11T08:09:17;53.47;;;31.77;;
30948;SDS011;17637;51.984;21.208;2023-02-11T08:11:49;56.45;;;35.33;;
30948;SDS011;17637;51.984;21.208;2023-02-11T08:14:21;66.38;;;35.20;;
30948;SDS011;17637;51.984;21.208;2023-02-11T08:16:55;96.35;;;46.83;;
30948;SDS011;17637;51.984;21.208;2023-02-11T08:19:27;58.90;;;33.30;;
30948;SDS011;17637;51.984;21.208;2023-02-11T08:21:59;90.20;;;46.97;;
30948;SDS011;17637;51.984;21.208;2023-02-11T08:24:31;56.80;;;34.80;;
30948;SDS011;17637;51.984;21.208;2023-02-11T08:27:03;58.33;;;34.30;;
30948;SDS011;17637;51.984;21.208;2023-02-11T08:29:35;53.17;;;33.25;;
30948;SDS011;17637;51.984;21.208;2023-02-11T08:32:07;58.63;;;33.92;;
30948;SDS011;17637;51.984;21.208;2023-02-11T08:34:40;57.88;;;34.53;;
30948;SDS011;17637;51.984;21.208;2023-02-11T08:37:12;57.92;;;34.28;;
30948;SDS011;17637;51.984;21.208;2023-02-11T08:39:44;62.20;;;36.42;;
30948;SDS011;17637;51.984;21.208;2023-02-11T08:42:17;61.85;;;35.90;;
30948;SDS011;17637;51.984;21.208;2023-02-11T08:44:49;69.18;;;39.97;;
30948;SDS011;17637;51.984;21.208;2023-02-11T08:47:21;93.32;;;47.35;;
30948;SDS011;17637;51.984;21.208;2023-02-11T08:49:53;82.43;;;45.78;;
30948;SDS011;17637;51.984;21.208;2023-02-11T08:52:25;62.05;;;38.22;;
30948;SDS011;17637;51.984;21.208;2023-02-11T08:54:57;78.22;;;42.88;;
30948;SDS011;17637;51.984;21.208;2023-02-11T08:57:29;72.75;;;41.55;;
30948;SDS011;17637;51.984;21.208;2023-02-11T09:00:02;76.95;;;44.25;;
30948;SDS011;17637;51.984;21.208;2023-02-11T09:02:34;73.65;;;43.08;;
30948;SDS011;17637;51.984;21.208;2023-02-11T09:05:06;80.70;;;47.08;;
30948;SDS011;17637;51.984;21.208;2023-02-11T09:07:39;78.10;;;45.30;;
30948;SDS011;17637;51.984;21.208;2023-02-11T09:10:11;77.30;;;42.95;;
30948;SDS011;17637;51.984;21.208;2023-02-11T09:12:43;65.10;;;41.28;;
30948;SDS011;17637;51.984;21.208;2023-02-11T09:15:16;71.88;;;42.85;;
30948;SDS011;17637;51.984;21.208;2023-02-11T09:17:47;68.00;;;41.70;;
30948;SDS011;17637;51.984;21.208;2023-02-11T09:20:19;71.45;;;41.75;;
30948;SDS011;17637;51.984;21.208;2023-02-11T09:22:53;66.70;;;39.17;;
30948;SDS011;17637;51.984;21.208;2023-02-11T09:25:25;73.82;;;44.25;;
30948;SDS011;17637;51.984;21.208;2023-02-11T09:27:57;80.72;;;45.85;;
30948;SDS011;17637;51.984;21.208;2023-02-11T09:30:29;73.72;;;44.92;;
30948;SDS011;17637;51.984;21.208;2023-02-11T09:33:02;68.78;;;41.22;;
30948;SDS011;17637;51.984;21.208;2023-02-11T09:35:34;68.85;;;42.38;;
30948;SDS011;17637;51.984;21.208;2023-02-11T09:38:06;65.22;;;40.47;;
30948;SDS011;17637;51.984;21.208;2023-02-11T09:40:44;70.30;;;42.10;;
30948;SDS011;17637;51.984;21.208;2023-02-11T09:43:18;59.30;;;37.10;;
30948;SDS011;17637;51.984;21.208;2023-02-11T09:45:53;69.28;;;44.10;;
30948;SDS011;17637;51.984;21.208;2023-02-11T09:48:26;65.28;;;38.20;;
30948;SDS011;17637;51.984;21.208;2023-02-11T09:51:53;72.95;;;42.22;;
30948;SDS011;17637;51.984;21.208;2023-02-11T09:54:17;65.97;;;40.22;;
30948;SDS011;17637;51.984;21.208;2023-02-11T09:56:54;62.95;;;38.30;;
30948;SDS011;17637;51.984;21.208;2023-02-11T09:59:26;64.88;;;40.00;;
30948;SDS011;17637;51.984;21.208;2023-02-11T10:02:10;62.75;;;39.42;;
30948;SDS011;17637;51.984;21.208;2023-02-11T10:05:08;69.65;;;41.53;;
30948;SDS011;17637;51.984;21.208;2023-02-11T10:07:54;66.07;;;39.65;;
30948;SDS011;17637;51.984;21.208;2023-02-11T10:21:52;73.93;;;43.15;;
30948;SDS011;17637;51.984;21.208;2023-02-11T10:24:37;83.03;;;46.75;;
30948;SDS011;17637;51.984;21.208;2023-02-11T10:27:14;97.88;;;54.92;;
30948;SDS011;17637;51.984;21.208;2023-02-11T10:29:51;75.35;;;46.10;;
30948;SDS011;17637;51.984;21.208;2023-02-11T10:35:19;73.05;;;45.03;;
30948;SDS011;17637;51.984;21.208;2023-02-11T10:37:53;73.18;;;43.33;;
30948;SDS011;17637;51.984;21.208;2023-02-11T10:40:28;81.38;;;45.58;;
30948;SDS011;17637;51.984;21.208;2023-02-11T10:43:05;88.35;;;49.03;;
30948;SDS011;17637;51.984;21.208;2023-02-11T10:45:49;87.82;;;50.22;;
30948;SDS011;17637;51.984;21.208;2023-02-11T10:48:39;86.13;;;48.72;;
30948;SDS011;17637;51.984;21.208;2023-02-11T10:56:35;80.75;;;45.60;;
30948;SDS011;17637;51.984;21.208;2023-02-11T10:59:29;82.50;;;46.38;;
30948;SDS011;17637;51.984;21.208;2023-02-11T11:02:16;90.82;;;51.17;;
30948;SDS011;17637;51.984;21.208;2023-02-11T11:04:55;99.45;;;56.35;;
30948;SDS011;17637;51.984;21.208;2023-02-11T11:07:28;88.10;;;51.47;;
30948;SDS011;17637;51.984;21.208;2023-02-11T11:10:23;79.50;;;44.75;;
30948;SDS011;17637;51.984;21.208;2023-02-11T11:13:07;73.30;;;43.25;;
30948;SDS011;17637;51.984;21.208;2023-02-11T11:18:46;67.07;;;39.07;;
30948;SDS011;17637;51.984;21.208;2023-02-11T11:21:23;67.68;;;39.95;;
30948;SDS011;17637;51.984;21.208;2023-02-11T11:24:00;57.83;;;35.15;;
30948;SDS011;17637;51.984;21.208;2023-02-11T11:29:26;60.13;;;35.85;;
30948;SDS011;17637;51.984;21.208;2023-02-11T11:32:01;61.70;;;38.08;;
30948;SDS011;17637;51.984;21.208;2023-02-11T11:34:51;59.40;;;36.65;;
30948;SDS011;17637;51.984;21.208;2023-02-11T11:37:31;63.58;;;37.97;;
30948;SDS011;17637;51.984;21.208;2023-02-11T11:42:52;68.07;;;40.63;;
30948;SDS011;17637;51.984;21.208;2023-02-11T11:45:55;70.90;;;42.58;;
30948;SDS011;17637;51.984;21.208;2023-02-11T11:48:39;63.80;;;38.83;;
30948;SDS011;17637;51.984;21.208;2023-02-11T11:51:18;66.70;;;38.97;;
30948;SDS011;17637;51.984;21.208;2023-02-11T11:53:52;63.97;;;36.47;;
30948;SDS011;17637;51.984;21.208;2023-02-11T11:56:31;72.85;;;42.28;;
30948;SDS011;17637;51.984;21.208;2023-02-11T11:59:10;70.90;;;39.65;;
30948;SDS011;17637;51.984;21.208;2023-02-11T12:18:16;100.43;;;51.70;;
30948;SDS011;17637;51.984;21.208;2023-02-11T12:23:45;117.53;;;58.10;;
30948;SDS011;17637;51.984;21.208;2023-02-11T12:26:51;141.10;;;66.22;;
30948;SDS011;17637;51.984;21.208;2023-02-11T12:29:50;105.72;;;56.67;;
30948;SDS011;17637;51.984;21.208;2023-02-11T12:32:42;106.88;;;55.53;;
30948;SDS011;17637;51.984;21.208;2023-02-11T12:35:20;101.55;;;54.65;;
30948;SDS011;17637;51.984;21.208;2023-02-11T12:41:36;105.32;;;54.85;;
30948;SDS011;17637;51.984;21.208;2023-02-11T12:43:46;116.30;;;57.03;;
30948;SDS011;17637;51.984;21.208;2023-02-11T12:58:11;105.95;;;53.75;;
30948;SDS011;17637;51.984;21.208;2023-02-11T13:00:54;103.63;;;53.80;;
30948;SDS011;17637;51.984;21.208;2023-02-11T13:03:36;104.20;;;54.65;;
30948;SDS011;17637;51.984;21.208;2023-02-11T13:06:13;99.80;;;52.40;;
30948;SDS011;17637;51.984;21.208;2023-02-11T13:08:53;99.18;;;53.78;;
30948;SDS011;17637;51.984;21.208;2023-02-11T13:11:42;100.80;;;52.38;;
30948;SDS011;17637;51.984;21.208;2023-02-11T13:14:36;96.28;;;49.13;;
30948;SDS011;17637;51.984;21.208;2023-02-11T13:17:20;95.60;;;50.15;;
30948;SDS011;17637;51.984;21.208;2023-02-11T13:19:58;95.05;;;49.90;;
30948;SDS011;17637;51.984;21.208;2023-02-11T13:22:38;104.88;;;53.22;;
30948;SDS011;17637;51.984;21.208;2023-02-11T13:25:21;102.97;;;50.45;;
30948;SDS011;17637;51.984;21.208;2023-02-11T13:31:11;92.38;;;50.17;;
30948;SDS011;17637;51.984;21.208;2023-02-11T13:33:45;98.88;;;50.60;;
30948;SDS011;17637;51.984;21.208;2023-02-11T13:36:24;106.20;;;55.75;;
30948;SDS011;17637;51.984;21.208;2023-02-11T13:38:58;115.28;;;56.92;;
30948;SDS011;17637;51.984;21.208;2023-02-11T13:41:33;105.25;;;55.40;;
30948;SDS011;17637;51.984;21.208;2023-02-11T13:52:02;107.70;;;57.65;;
30948;SDS011;17637;51.984;21.208;2023-02-11T13:54:37;111.30;;;59.05;;
30948;SDS011;17637;51.984;21.208;2023-02-11T13:59:55;122.45;;;65.40;;
30948;SDS011;17637;51.984;21.208;2023-02-11T14:02:32;111.25;;;58.92;;
30948;SDS011;17637;51.984;21.208;2023-02-11T14:05:26;105.60;;;54.80;;
30948;SDS011;17637;51.984;21.208;2023-02-11T14:08:19;127.90;;;64.85;;
30948;SDS011;17637;51.984;21.208;2023-02-11T14:22:18;118.00;;;56.63;;
30948;SDS011;17637;51.984;21.208;2023-02-11T14:24:57;115.80;;;60.10;;
30948;SDS011;17637;51.984;21.208;2023-02-11T14:30:38;104.38;;;51.50;;
30948;SDS011;17637;51.984;21.208;2023-02-11T14:39:57;97.90;;;52.42;;
30948;SDS011;17637;51.984;21.208;2023-02-11T14:42:37;109.80;;;54.40;;
30948;SDS011;17637;51.984;21.208;2023-02-11T14:45:10;105.78;;;57.30;;
30948;SDS011;17637;51.984;21.208;2023-02-11T14:54:14;95.28;;;50.90;;
30948;SDS011;17637;51.984;21.208;2023-02-11T15:00:02;83.25;;;48.80;;
30948;SDS011;17637;51.984;21.208;2023-02-11T15:02:37;89.50;;;49.58;;
30948;SDS011;17637;51.984;21.208;2023-02-11T15:08:00;78.55;;;48.03;;
30948;SDS011;17637;51.984;21.208;2023-02-11T15:13:05;86.05;;;50.85;;
30948;SDS011;17637;51.984;21.208;2023-02-11T15:15:38;82.00;;;47.42;;
30948;SDS011;17637;51.984;21.208;2023-02-11T15:18:18;79.50;;;48.08;;
30948;SDS011;17637;51.984;21.208;2023-02-11T15:20:54;77.53;;;46.42;;
30948;SDS011;17637;51.984;21.208;2023-02-11T15:23:27;88.88;;;50.53;;
30948;SDS011;17637;51.984;21.208;2023-02-11T15:26:01;83.78;;;46.65;;
30948;SDS011;17637;51.984;21.208;2023-02-11T15:28:36;85.28;;;47.28;;
30948;SDS011;17637;51.984;21.208;2023-02-11T15:31:14;73.22;;;42.17;;
30948;SDS011;17637;51.984;21.208;2023-02-11T15:33:48;77.68;;;44.13;;
30948;SDS011;17637;51.984;21.208;2023-02-11T15:36:22;76.60;;;43.72;;
30948;SDS011;17637;51.984;21.208;2023-02-11T15:39:15;73.22;;;42.55;;
30948;SDS011;17637;51.984;21.208;2023-02-11T15:47:47;76.32;;;46.22;;
30948;SDS011;17637;51.984;21.208;2023-02-11T15:50:22;80.63;;;46.58;;
30948;SDS011;17637;51.984;21.208;2023-02-11T15:52:57;76.15;;;44.42;;
30948;SDS011;17637;51.984;21.208;2023-02-11T15:55:33;71.57;;;41.28;;
30948;SDS011;17637;51.984;21.208;2023-02-11T15:58:07;74.28;;;42.45;;
30948;SDS011;17637;51.984;21.208;2023-02-11T16:00:45;66.55;;;39.00;;
30948;SDS011;17637;51.984;21.208;2023-02-11T16:03:24;75.75;;;42.67;;
30948;SDS011;17637;51.984;21.208;2023-02-11T16:06:15;60.80;;;34.40;;
30948;SDS011;17637;51.984;21.208;2023-02-11T16:09:00;74.32;;;43.83;;
30948;SDS011;17637;51.984;21.208;2023-02-11T16:11:53;79.43;;;42.85;;
30948;SDS011;17637;51.984;21.208;2023-02-11T16:17:08;67.18;;;39.55;;
30948;SDS011;17637;51.984;21.208;2023-02-11T16:19:44;58.67;;;35.92;;
30948;SDS011;17637;51.984;21.208;2023-02-11T16:22:19;60.08;;;36.33;;
30948;SDS011;17637;51.984;21.208;2023-02-11T16:24:58;61.97;;;37.13;;
30948;SDS011;17637;51.984;21.208;2023-02-11T16:27:34;67.35;;;38.55;;
30948;SDS011;17637;51.984;21.208;2023-02-11T16:30:27;63.70;;;37.53;;
30948;SDS011;17637;51.984;21.208;2023-02-11T16:33:08;68.43;;;38.53;;
30948;SDS011;17637;51.984;21.208;2023-02-11T16:35:41;69.00;;;39.67;;
30948;SDS011;17637;51.984;21.208;2023-02-11T16:38:17;60.72;;;34.92;;
30948;SDS011;17637;51.984;21.208;2023-02-11T16:40:50;67.10;;;39.42;;
30948;SDS011;17637;51.984;21.208;2023-02-11T16:43:22;64.32;;;37.75;;
30948;SDS011;17637;51.984;21.208;2023-02-11T16:45:54;57.00;;;34.92;;
30948;SDS011;17637;51.984;21.208;2023-02-11T16:48:28;64.72;;;37.65;;
30948;SDS011;17637;51.984;21.208;2023-02-11T16:51:01;61.78;;;36.75;;
30948;SDS011;17637;51.984;21.208;2023-02-11T16:53:33;61.08;;;36.05;;
30948;SDS011;17637;51.984;21.208;2023-02-11T16:56:06;58.60;;;35.67;;
30948;SDS011;17637;51.984;21.208;2023-02-11T16:58:44;52.67;;;32.92;;
30948;SDS011;17637;51.984;21.208;2023-02-11T17:01:16;57.83;;;36.65;;
30948;SDS011;17637;51.984;21.208;2023-02-11T17:03:49;58.97;;;35.60;;
30948;SDS011;17637;51.984;21.208;2023-02-11T17:06:21;58.47;;;34.85;;
30948;SDS011;17637;51.984;21.208;2023-02-11T17:08:55;50.90;;;31.63;;
30948;SDS011;17637;51.984;21.208;2023-02-11T17:11:27;52.80;;;32.75;;
30948;SDS011;17637;51.984;21.208;2023-02-11T17:13:59;78.97;;;46.00;;
30948;SDS011;17637;51.984;21.208;2023-02-11T17:16:31;72.95;;;44.88;;
30948;SDS011;17637;51.984;21.208;2023-02-11T17:19:03;54.45;;;31.83;;
30948;SDS011;17637;51.984;21.208;2023-02-11T17:21:35;60.70;;;37.58;;
30948;SDS011;17637;51.984;21.208;2023-02-11T17:24:07;52.05;;;31.95;;
30948;SDS011;17637;51.984;21.208;2023-02-11T17:26:39;57.58;;;34.17;;
30948;SDS011;17637;51.984;21.208;2023-02-11T17:29:13;57.72;;;35.70;;
30948;SDS011;17637;51.984;21.208;2023-02-11T17:31:48;60.67;;;35.50;;
30948;SDS011;17637;51.984;21.208;2023-02-11T17:34:22;56.47;;;35.20;;
30948;SDS011;17637;51.984;21.208;2023-02-11T17:36:54;57.38;;;35.50;;
30948;SDS011;17637;51.984;21.208;2023-02-11T17:39:28;52.85;;;33.83;;
30948;SDS011;17637;51.984;21.208;2023-02-11T17:42:00;56.95;;;34.83;;
30948;SDS011;17637;51.984;21.208;2023-02-11T17:44:33;55.13;;;34.78;;
30948;SDS011;17637;51.984;21.208;2023-02-11T17:47:05;53.65;;;32.85;;
30948;SDS011;17637;51.984;21.208;2023-02-11T17:49:38;57.97;;;36.00;;